createdAt,value
2023-05-17T00:03:07.374Z,2.60
2023-05-17T00:08:09.113Z,2.92
2023-05-17T00:13:10.692Z,2.92
2023-05-17T00:18:12.328Z,3.78
2023-05-17T00:23:14.152Z,4.07
2023-05-17T00:28:15.830Z,4.80
2023-05-17T00:33:17.425Z,4.22
2023-05-17T00:38:19.055Z,4.05
2023-05-17T00:43:20.775Z,3.55
2023-05-17T00:48:22.781Z,3.30
2023-05-17T00:53:26.366Z,4.63
2023-05-17T00:58:28.066Z,3.58
2023-05-17T01:03:29.767Z,4.25
2023-05-17T01:08:32.254Z,3.42
2023-05-17T01:13:42.288Z,4.50
2023-05-17T01:18:58.407Z,3.72
2023-05-17T01:24:28.643Z,4.33
2023-05-17T01:29:32.088Z,3.92
2023-05-17T01:34:35.145Z,3.67
2023-05-17T01:39:37.842Z,4.13
2023-05-17T01:44:48.464Z,3.75
2023-05-17T01:49:54.017Z,3.63
2023-05-17T01:55:10.572Z,4.07
2023-05-17T02:00:13.856Z,3.90
2023-05-17T02:05:20.232Z,3.47
2023-05-17T02:10:22.000Z,3.78
2023-05-17T02:15:23.593Z,3.65
2023-05-17T02:20:25.254Z,3.47
2023-05-17T02:25:27.014Z,4.03
2023-05-17T02:30:28.854Z,4.68
2023-05-17T02:35:31.662Z,3.63
2023-05-17T02:40:33.324Z,4.15
2023-05-17T02:45:37.582Z,4.45
2023-05-17T02:50:40.207Z,4.70
2023-05-17T02:55:41.767Z,4.43
2023-05-17T03:00:46.593Z,5.43
2023-05-17T03:05:49.806Z,4.05
2023-05-17T03:10:51.835Z,6.05
2023-05-17T03:15:53.742Z,6.20
2023-05-17T03:20:55.819Z,6.30
2023-05-17T03:25:57.981Z,8.43
2023-05-17T03:31:01.455Z,6.88
2023-05-17T03:36:06.572Z,7.45
2023-05-17T03:41:08.313Z,7.65
2023-05-17T03:46:10.231Z,7.22
2023-05-17T03:51:12.335Z,8.43
2023-05-17T03:56:14.215Z,8.13
2023-05-17T04:01:16.423Z,9.57
2023-05-17T04:06:18.302Z,8.10
2023-05-17T04:11:20.013Z,9.10
2023-05-17T04:16:21.602Z,9.50
2023-05-17T04:21:23.396Z,9.60
2023-05-17T04:26:26.650Z,8.45
2023-05-17T04:31:28.197Z,9.20
2023-05-17T04:36:29.875Z,9.95
2023-05-17T04:41:31.874Z,8.10
2023-05-17T04:46:34.338Z,7.93
2023-05-17T04:51:36.163Z,7.43
2023-05-17T04:56:37.935Z,6.95
2023-05-17T05:06:46.448Z,6.13
2023-05-17T05:11:49.821Z,7.03
2023-05-17T05:16:51.735Z,7.25
2023-05-17T05:21:53.609Z,7.00
2023-05-17T05:26:55.335Z,6.53
2023-05-17T05:31:58.060Z,7.25
2023-05-17T05:37:00.349Z,8.20
2023-05-17T05:42:02.187Z,7.22
2023-05-17T05:47:04.978Z,8.82
2023-05-17T05:52:06.663Z,7.65
2023-05-17T05:57:08.417Z,9.00
2023-05-17T06:02:10.374Z,10.55
2023-05-17T06:07:12.859Z,8.32
2023-05-17T06:12:14.420Z,9.50
2023-05-17T06:17:15.969Z,10.85
2023-05-17T06:22:17.582Z,10.00
2023-05-17T06:27:20.400Z,16.30
2023-05-17T06:32:21.991Z,19.65
2023-05-17T06:37:24.505Z,19.65
2023-05-17T06:42:26.043Z,17.63
2023-05-17T06:47:27.645Z,15.27
2023-05-17T06:52:29.407Z,13.00
2023-05-17T06:57:31.212Z,10.30
2023-05-17T07:02:34.599Z,9.43
2023-05-17T07:07:36.490Z,8.45
2023-05-17T07:12:38.052Z,8.15
2023-05-17T07:17:40.412Z,6.65
2023-05-17T07:22:42.172Z,5.55
2023-05-17T07:27:43.703Z,6.10
2023-05-17T07:32:45.417Z,5.85
2023-05-17T07:37:46.995Z,6.43
2023-05-17T07:42:48.721Z,6.63
2023-05-17T07:47:50.387Z,5.97
2023-05-17T07:52:52.051Z,4.68
2023-05-17T07:57:53.700Z,4.40
2023-05-17T08:02:56.763Z,4.75
2023-05-17T08:07:58.427Z,3.67
2023-05-17T08:13:00.043Z,3.60
2023-05-17T08:18:04.413Z,3.25
2023-05-17T08:23:06.509Z,2.78
2023-05-17T08:28:08.332Z,2.10
2023-05-17T08:33:10.363Z,2.53
2023-05-17T08:38:11.947Z,2.72
2023-05-17T08:43:14.643Z,2.08
2023-05-17T08:48:16.453Z,1.60
2023-05-17T08:53:18.475Z,2.35
2023-05-17T08:58:23.709Z,2.25
2023-05-17T09:03:26.644Z,2.25
2023-05-17T09:08:28.517Z,1.60
2023-05-17T09:13:30.187Z,1.73
2023-05-17T09:18:32.541Z,1.58
2023-05-17T09:23:34.166Z,2.15
2023-05-17T09:28:40.633Z,1.60
2023-05-17T09:33:45.763Z,2.80
2023-05-17T09:38:56.548Z,2.15
2023-05-17T09:44:00.648Z,2.30
2023-05-17T09:49:03.343Z,1.92
2023-05-17T09:54:07.154Z,2.20
2023-05-17T09:59:15.968Z,2.40
2023-05-17T10:04:19.764Z,2.67
2023-05-17T10:09:22.883Z,2.33
2023-05-17T10:14:30.330Z,2.50
2023-05-17T10:19:32.863Z,1.80
2023-05-17T10:24:35.794Z,2.40
2023-05-17T10:29:39.131Z,2.95
2023-05-17T10:34:40.804Z,2.22
2023-05-17T10:39:42.388Z,2.58
2023-05-17T10:44:44.036Z,1.80
2023-05-17T10:49:45.676Z,2.10
2023-05-17T10:54:49.075Z,1.95
2023-05-17T10:59:59.482Z,1.90
2023-05-17T11:05:01.372Z,2.10
2023-05-17T11:10:11.608Z,1.60
2023-05-17T11:15:16.558Z,2.75
2023-05-17T11:20:24.145Z,1.77
2023-05-17T11:25:31.646Z,2.30
2023-05-17T11:30:33.531Z,1.98
2023-05-17T11:35:37.219Z,2.38
2023-05-17T11:40:38.879Z,2.10
2023-05-17T11:45:47.980Z,1.90
2023-05-17T11:50:52.189Z,2.17
2023-05-17T11:55:53.771Z,2.22
2023-05-17T12:00:59.144Z,2.38
2023-05-17T12:06:06.921Z,3.00
2023-05-17T12:11:15.634Z,2.03
2023-05-17T12:16:21.778Z,2.67
2023-05-17T12:21:23.541Z,2.10
2023-05-17T12:26:25.178Z,1.88
2023-05-17T12:31:34.683Z,2.47
2023-05-17T12:36:36.838Z,2.05
2023-05-17T12:41:39.718Z,2.05
2023-05-17T12:46:41.443Z,2.55
2023-05-17T12:51:46.598Z,1.75
2023-05-17T12:56:48.227Z,1.65
2023-05-17T13:01:51.692Z,2.20
2023-05-17T13:06:56.202Z,1.90
2023-05-17T13:11:59.529Z,2.42
2023-05-17T13:17:05.299Z,4.15
2023-05-17T13:22:07.372Z,1.90
2023-05-17T13:27:09.661Z,2.30
2023-05-17T13:32:13.125Z,1.80
2023-05-17T13:37:14.710Z,2.35
2023-05-17T13:42:16.297Z,2.08
2023-05-17T13:47:17.886Z,1.80
2023-05-17T13:52:19.434Z,2.28
2023-05-17T13:57:21.058Z,1.80
2023-05-17T14:02:22.657Z,2.13
2023-05-17T14:07:24.365Z,2.10
2023-05-17T14:12:25.935Z,2.03
2023-05-17T14:17:27.559Z,1.65
2023-05-17T14:22:29.211Z,1.85
2023-05-17T14:27:30.819Z,2.22
2023-05-17T14:32:32.443Z,2.15
2023-05-17T14:37:34.211Z,2.42
2023-05-17T14:42:35.909Z,1.80
2023-05-17T14:47:37.534Z,2.60
2023-05-17T14:52:39.122Z,2.55
2023-05-17T14:57:40.685Z,1.85
2023-05-17T15:02:42.255Z,1.67
2023-05-17T15:07:43.928Z,2.00
2023-05-17T15:12:45.493Z,2.50
2023-05-17T15:17:47.050Z,2.28
2023-05-17T15:22:48.638Z,2.60
2023-05-17T15:27:50.244Z,1.83
2023-05-17T15:32:51.811Z,2.13
2023-05-17T15:37:53.600Z,2.20
2023-05-17T15:42:55.220Z,2.42
2023-05-17T15:47:56.775Z,2.10
2023-05-17T15:52:58.943Z,2.35
2023-05-17T15:58:01.845Z,2.45
2023-05-17T16:03:04.219Z,2.58
2023-05-17T16:08:06.751Z,1.73
2023-05-17T16:13:08.396Z,2.40
2023-05-17T16:18:10.167Z,2.20
2023-05-17T16:23:12.232Z,1.77
2023-05-17T16:28:13.763Z,2.67
2023-05-17T16:33:15.481Z,2.22
2023-05-17T16:38:17.110Z,2.35
2023-05-17T16:43:18.785Z,2.25
2023-05-17T16:48:20.681Z,3.05
2023-05-17T16:53:22.436Z,2.35
2023-05-17T16:58:24.026Z,2.90
2023-05-17T17:03:25.700Z,1.90
2023-05-17T17:08:27.295Z,2.28
2023-05-17T17:13:28.843Z,2.20
2023-05-17T17:18:30.381Z,2.30
2023-05-17T17:23:31.924Z,2.28
2023-05-17T17:28:33.645Z,1.75
2023-05-17T17:33:35.939Z,2.30
2023-05-17T17:38:37.798Z,1.70
2023-05-17T17:43:39.416Z,2.55
2023-05-17T17:48:40.991Z,1.67
2023-05-17T17:53:42.581Z,1.98
2023-05-17T17:58:44.177Z,2.17
2023-05-17T18:03:45.745Z,1.80
2023-05-17T18:08:47.305Z,1.95
2023-05-17T18:13:48.875Z,1.75
2023-05-17T18:18:50.519Z,2.35
2023-05-17T18:23:52.153Z,1.90
2023-05-17T18:28:53.709Z,1.75
2023-05-17T18:33:57.208Z,2.33
2023-05-17T18:38:59.001Z,2.92
2023-05-17T18:44:00.699Z,3.47
2023-05-17T18:49:02.272Z,3.00
2023-05-17T18:54:03.902Z,2.83
2023-05-17T18:59:05.531Z,2.83
2023-05-17T19:04:07.141Z,2.97
2023-05-17T19:09:08.708Z,2.75
2023-05-17T19:14:10.428Z,2.53
2023-05-17T19:19:12.136Z,2.13
2023-05-17T19:24:13.803Z,2.35
2023-05-17T19:29:15.371Z,2.40
2023-05-17T19:34:16.929Z,2.28
2023-05-17T19:39:18.600Z,2.67
2023-05-17T19:44:20.285Z,4.15
2023-05-17T19:49:21.886Z,2.85
2023-05-17T19:54:23.438Z,2.20
2023-05-17T19:59:25.178Z,3.05
2023-05-17T20:04:26.715Z,3.08
2023-05-17T20:09:28.364Z,2.22
2023-05-17T20:14:29.974Z,2.10
2023-05-17T20:19:31.653Z,2.55
2023-05-17T20:24:33.533Z,1.83
2023-05-17T20:29:35.158Z,3.05
2023-05-17T20:34:36.718Z,3.65
2023-05-17T20:39:38.294Z,3.42
2023-05-17T20:44:39.887Z,3.08
2023-05-17T20:49:41.413Z,4.55
2023-05-17T20:54:43.047Z,4.93
2023-05-17T20:59:44.585Z,4.07
2023-05-17T21:04:46.244Z,4.03
2023-05-17T21:09:47.891Z,2.00
2023-05-17T21:14:59.846Z,2.38
2023-05-17T21:20:10.184Z,2.35
2023-05-17T21:25:11.774Z,3.10
2023-05-17T21:30:13.447Z,15.73
2023-05-17T21:35:15.047Z,3.10
2023-05-17T21:40:16.726Z,2.70
2023-05-17T21:45:18.302Z,2.20
2023-05-17T21:50:19.959Z,2.33
2023-05-17T21:55:21.584Z,2.92
2023-05-17T22:00:23.131Z,2.38
2023-05-17T22:05:24.730Z,2.97
2023-05-17T22:10:26.362Z,2.33
2023-05-17T22:15:28.054Z,2.30
2023-05-17T22:20:29.967Z,3.33
2023-05-17T22:25:32.300Z,3.22
2023-05-17T22:30:34.199Z,2.17
2023-05-17T22:35:36.060Z,2.65
2023-05-17T22:40:37.742Z,3.97
2023-05-17T22:45:41.420Z,2.97
2023-05-17T22:50:43.107Z,2.28
2023-05-17T22:55:44.834Z,2.45
2023-05-17T23:00:47.009Z,2.28
2023-05-17T23:05:48.770Z,2.60
2023-05-17T23:10:50.423Z,2.60
2023-05-17T23:15:52.320Z,2.67
2023-05-17T23:20:53.921Z,3.00
2023-05-17T23:25:55.810Z,2.60
2023-05-17T23:30:57.422Z,3.35
2023-05-17T23:35:59.073Z,3.17
2023-05-17T23:41:00.713Z,2.60
2023-05-17T23:46:02.356Z,2.63
2023-05-17T23:51:04.462Z,3.33
2023-05-17T23:56:06.429Z,2.72
